Pastura, New Mexico
Current Conditions -  °F | °C
As of 6:53 PM on Monday 20 Oct 2014 (Local Time) from KCQC Reporting Station
Broken Clouds Broken Clouds  
Wind Chill: 52°   Ceiling: 10000
Heat Index: 52°   Visibility: 10mi
Dew Point: 44°   Wind: 13mph
Humidity: 74%   Direction: 170°S
Pressure: 30.22"   Gusts: NA
Location:  34.8581°N, 104.704°W
Report Text: KCQC 210053Z AUTO 17011KT 10SM FEW055 BKN100 BKN120 11/07 A3022 RMK AO2 SLP187 T01110067
Loading
Personal Weather Stations






























Interactive Weather Map
Tropical Storm Tracking
New forecast layout! Learn more

10-Day Weather Forecast

Advertisements
Track Severe Weather on mobile